Time;durP1;ratioP1;P1;durP2;ratioP2;P2;SDS_P1;SDS_P2;PMS_P1;PMS_P2;Temp;Humidity;BMP_temperature;BMP_pressure;BME280_temperature;BME280_humidity;BME280_pressure;Samples;Min_cycle;Max_cycle;Signal;HPM_P1;HPM_P2
2023/01/17 00:01:06;;;;;;;66.80;35.27;;;8.20;1.00;;;;;;4995457;28;20048;-49
2023/01/17 00:09:51;;;;;;;60.20;33.77;;;8.10;1.00;;;;;;4995713;28;20125;-48
2023/01/17 00:11:50;;;;;;;63.77;36.03;;;8.20;1.00;;;;;;4995612;28;20033;-48
2023/01/17 00:14:16;;;;;;;54.57;33.03;;;8.10;1.00;;;;;;4995160;28;20038;-50
2023/01/17 00:16:42;;;;;;;60.37;33.43;;;8.20;1.00;;;;;;4995100;28;20466;-48
2023/01/17 01:33:46;;;;;;;63.97;36.00;;;8.40;1.00;;;;;;4993866;28;20088;-47
2023/01/17 01:36:12;;;;;;;58.87;35.10;;;8.40;1.00;;;;;;4993582;28;20042;-49
2023/01/17 01:38:37;;;;;;;62.33;36.23;;;8.40;1.00;;;;;;4994004;28;20038;-47
2023/01/17 01:41:04;;;;;;;57.70;34.77;;;8.40;1.00;;;;;;4993973;28;20030;-46
2023/01/17 01:43:50;;;;;;;60.50;34.33;;;8.30;1.00;;;;;;4994025;28;20456;-47
2023/01/17 01:46:25;;;;;;;63.07;35.30;;;8.40;1.00;;;;;;4989810;28;20596;-47
2023/01/17 01:48:57;;;;;;;59.90;35.13;;;8.30;1.00;;;;;;4993739;28;20026;-47
2023/01/17 01:51:36;;;;;;;60.57;35.10;;;8.30;1.00;;;;;;4987408;28;20128;-47
2023/01/17 01:54:12;;;;;;;58.33;34.13;;;8.30;1.00;;;;;;4989212;28;20041;-46
2023/01/17 01:56:39;;;;;;;53.63;33.30;;;8.30;1.00;;;;;;4993496;28;20026;-47
2023/01/17 01:59:10;;;;;;;59.77;34.43;;;8.30;1.00;;;;;;4993718;28;20027;-48
2023/01/17 02:01:35;;;;;;;56.83;34.03;;;8.20;1.00;;;;;;4993567;28;20051;-47
2023/01/17 02:04:02;;;;;;;59.47;34.27;;;8.30;1.00;;;;;;4993428;28;20033;-47
2023/01/17 02:06:30;;;;;;;61.03;35.77;;;8.20;1.00;;;;;;4992807;28;20041;-47
2023/01/17 02:09:01;;;;;;;59.50;34.80;;;8.10;1.00;;;;;;4993006;28;20046;-46
2023/01/17 02:11:26;;;;;;;57.13;34.87;;;8.20;1.00;;;;;;4993135;28;20038;-47
2023/01/17 02:13:52;;;;;;;60.83;34.73;;;8.20;1.00;;;;;;4993329;28;20042;-47
2023/01/17 02:16:35;;;;;;;61.87;35.37;;;8.30;1.00;;;;;;4992960;28;20109;-46
2023/01/17 02:19:07;;;;;;;64.47;34.60;;;8.30;1.00;;;;;;4993400;28;20392;-47
2023/01/17 02:21:52;;;;;;;64.60;35.63;;;8.20;1.00;;;;;;4993133;28;20042;-46
2023/01/17 02:24:36;;;;;;;;;;;8.20;1.00;;;;;;4992375;28;20040;-47
2023/01/17 02:27:24;;;;;;;69.10;37.23;;;8.10;1.00;;;;;;4985597;28;19929;-48
2023/01/17 02:34:08;;;;;;;60.73;32.60;;;8.00;1.00;;;;;;4972255;28;20054;-48
2023/01/17 02:36:54;;;;;;;59.40;34.27;;;7.90;1.00;;;;;;4984672;28;20118;-47
2023/01/17 02:39:22;;;;;;;60.43;36.73;;;8.00;1.00;;;;;;4992133;28;20026;-47
2023/01/17 02:42:08;;;;;;;61.43;36.10;;;8.00;1.00;;;;;;4982364;28;20440;-48
2023/01/17 02:44:40;;;;;;;61.63;35.47;;;8.00;1.00;;;;;;4991992;28;20034;-47
2023/01/17 02:47:28;;;;;;;57.67;33.67;;;7.90;1.00;;;;;;4989035;28;20555;-46
2023/01/17 02:50:00;;;;;;;62.70;34.53;;;7.90;1.00;;;;;;4992641;28;20034;-47
2023/01/17 02:52:36;;;;;;;59.07;35.57;;;7.90;1.00;;;;;;4992577;28;20022;-47
2023/01/17 02:55:21;;;;;;;58.30;33.80;;;8.00;1.00;;;;;;4984391;28;20387;-50
2023/01/17 02:57:52;;;;;;;;;;;7.90;1.00;;;;;;4991396;28;20400;-48
2023/01/17 03:00:18;;;;;;;58.33;33.90;;;7.80;1.00;;;;;;4989447;28;19953;-53
2023/01/17 03:03:28;;;;;;;52.80;32.50;;;7.90;1.00;;;;;;4991616;28;20080;-48
2023/01/17 03:06:10;;;;;;;51.50;30.47;;;7.90;1.00;;;;;;4970625;28;20065;-52
2023/01/17 03:08:43;;;;;;;57.97;33.17;;;7.80;1.00;;;;;;4989040;28;20097;-47
2023/01/17 03:11:10;;;;;;;58.73;33.63;;;7.80;1.00;;;;;;4992082;28;20034;-47
2023/01/17 03:13:36;;;;;;;50.63;30.47;;;7.90;1.00;;;;;;4992290;28;20097;-46
2023/01/17 03:16:13;;;;;;;51.47;32.47;;;7.90;1.00;;;;;;4989753;28;20026;-47
2023/01/17 03:18:39;;;;;;;52.63;31.23;;;7.90;1.00;;;;;;4992628;28;20069;-47
2023/01/17 03:21:04;;;;;;;53.17;33.53;;;7.80;1.00;;;;;;4994095;28;20031;-46
2023/01/17 03:23:30;;;;;;;49.47;31.23;;;7.80;1.00;;;;;;4996437;28;20101;-47
2023/01/17 03:25:56;;;;;;;50.70;30.43;;;7.90;1.00;;;;;;4996302;28;20114;-47
2023/01/17 03:28:21;;;;;;;56.37;32.77;;;8.00;1.00;;;;;;4994923;28;20034;-47
2023/01/17 03:30:47;;;;;;;47.27;29.47;;;8.10;1.00;;;;;;4995603;28;20034;-49
2023/01/17 03:33:16;;;;;;;45.47;30.40;;;8.10;1.00;;;;;;4995977;28;20042;-47
2023/01/17 03:35:44;;;;;;;53.10;30.90;;;8.10;1.00;;;;;;4995355;28;20023;-50
2023/01/17 03:38:09;;;;;;;56.27;33.93;;;8.20;1.00;;;;;;4996245;28;20069;-48
2023/01/17 03:40:35;;;;;;;65.53;36.37;;;8.10;1.00;;;;;;4995915;28;20062;-47
2023/01/17 03:43:01;;;;;;;67.73;37.10;;;8.10;1.00;;;;;;4995900;28;20045;-47
2023/01/17 03:45:26;;;;;;;63.53;37.60;;;8.00;1.00;;;;;;4995612;28;20023;-47
2023/01/17 03:47:52;;;;;;;61.00;34.20;;;8.10;1.00;;;;;;4995950;28;20162;-47
2023/01/17 03:50:18;;;;;;;68.57;38.20;;;8.20;1.00;;;;;;4995071;28;20046;-49
2023/01/17 03:52:44;;;;;;;67.80;37.60;;;8.10;1.00;;;;;;4995892;28;20426;-47
2023/01/17 03:55:09;;;;;;;63.50;38.73;;;8.00;1.00;;;;;;4995465;28;20034;-48
2023/01/17 03:57:35;;;;;;;65.00;37.37;;;8.10;1.00;;;;;;4996003;28;20026;-47
2023/01/17 04:00:01;;;;;;;68.90;38.43;;;8.00;1.00;;;;;;4995416;28;20476;-48
2023/01/17 04:02:27;;;;;;;70.93;39.37;;;8.00;1.00;;;;;;4995546;28;20380;-47
2023/01/17 04:04:53;;;;;;;67.83;38.00;;;7.90;1.00;;;;;;4995476;28;20391;-47
2023/01/17 04:07:19;;;;;;;72.10;38.20;;;7.90;1.00;;;;;;4995337;28;20109;-48
2023/01/17 04:09:44;;;;;;;77.27;38.87;;;8.00;1.00;;;;;;4993838;28;20022;-49
2023/01/17 04:12:10;;;;;;;78.83;38.30;;;8.00;1.00;;;;;;4995419;28;20353;-47
2023/01/17 04:14:36;;;;;;;79.33;41.03;;;7.90;1.00;;;;;;4994992;28;20069;-47
2023/01/17 04:17:02;;;;;;;79.60;41.23;;;7.90;1.00;;;;;;4994058;28;20034;-50
2023/01/17 04:19:29;;;;;;;68.67;38.83;;;7.80;1.00;;;;;;4993601;28;20038;-47
2023/01/17 04:21:55;;;;;;;73.20;37.53;;;7.80;1.00;;;;;;4995320;28;20027;-47
2023/01/17 04:24:21;;;;;;;75.33;41.33;;;7.80;1.00;;;;;;4994850;28;20116;-47
2023/01/17 04:26:46;;;;;;;74.90;40.40;;;7.70;1.00;;;;;;4994777;28;20380;-47
2023/01/17 04:29:12;;;;;;;69.77;38.17;;;7.80;1.00;;;;;;4995541;28;20030;-47
2023/01/17 04:31:37;;;;;;;71.10;39.57;;;7.80;1.00;;;;;;4994754;28;20033;-48
2023/01/17 04:34:03;;;;;;;63.63;36.63;;;7.80;1.00;;;;;;4995529;28;20038;-46
2023/01/17 04:36:28;;;;;;;69.83;39.10;;;7.80;1.00;;;;;;4995258;28;20160;-47
2023/01/17 04:38:54;;;;;;;68.57;38.43;;;7.80;1.00;;;;;;4995651;28;20042;-48
2023/01/17 04:41:20;;;;;;;65.03;36.37;;;7.80;1.00;;;;;;4994812;28;20035;-47
2023/01/17 04:43:45;;;;;;;63.80;35.83;;;7.80;1.00;;;;;;4995258;28;20026;-53
2023/01/17 04:46:11;;;;;;;68.40;38.03;;;7.80;1.00;;;;;;4995147;28;20471;-49
2023/01/17 04:48:37;;;;;;;71.80;37.10;;;7.70;1.00;;;;;;4995019;28;20015;-47
2023/01/17 04:51:04;;;;;;;64.73;36.77;;;7.60;1.00;;;;;;4994599;28;20053;-47
2023/01/17 04:53:30;;;;;;;63.90;36.23;;;7.60;1.00;;;;;;4994527;28;20203;-51
2023/01/17 04:55:56;;;;;;;66.30;37.13;;;7.60;1.00;;;;;;4994903;28;20110;-47
2023/01/17 04:58:28;;;;;;;61.93;36.67;;;7.60;1.00;;;;;;4993331;28;20117;-47
2023/01/17 05:00:54;;;;;;;63.47;35.27;;;7.60;1.00;;;;;;4983847;28;20081;-47
2023/01/17 05:03:21;;;;;;;65.03;36.60;;;7.60;1.00;;;;;;4994154;28;20026;-47
2023/01/17 05:05:47;;;;;;;65.73;37.57;;;7.60;1.00;;;;;;4992911;28;20057;-47
2023/01/17 05:08:13;;;;;;;63.23;36.53;;;7.60;1.00;;;;;;4993869;28;20030;-49
2023/01/17 05:10:39;;;;;;;61.87;36.13;;;7.70;1.00;;;;;;4993883;28;20034;-48
2023/01/17 05:13:05;;;;;;;64.63;37.43;;;7.70;1.00;;;;;;4994063;28;20070;-50
2023/01/17 05:15:30;;;;;;;62.63;34.23;;;7.70;1.00;;;;;;4994071;28;20062;-47
2023/01/17 05:17:56;;;;;;;60.90;35.57;;;7.70;1.00;;;;;;4994459;28;20030;-47
2023/01/17 05:20:24;;;;;;;62.10;36.97;;;7.70;1.00;;;;;;4993985;28;20023;-47
2023/01/17 05:22:54;;;;;;;62.80;35.63;;;7.60;1.00;;;;;;4994249;28;20022;-47
2023/01/17 05:25:21;;;;;;;57.40;35.87;;;7.70;1.00;;;;;;4993782;28;20037;-47
2023/01/17 05:27:47;;;;;;;62.70;36.87;;;7.70;1.00;;;;;;4994094;28;20022;-48
2023/01/17 05:30:20;;;;;;;65.57;35.20;;;7.70;1.00;;;;;;4994145;28;20033;-47
2023/01/17 05:32:50;;;;;;;62.30;34.37;;;7.80;1.00;;;;;;4992881;28;20476;-47
2023/01/17 05:35:18;;;;;;;63.30;35.77;;;7.80;1.00;;;;;;4993584;28;20062;-49
2023/01/17 05:37:47;;;;;;;64.50;36.37;;;7.90;1.00;;;;;;4994074;28;20030;-48
2023/01/17 05:40:15;;;;;;;60.03;34.33;;;7.90;1.00;;;;;;4993466;28;20045;-47
2023/01/17 05:42:45;;;;;;;63.67;35.87;;;7.90;1.00;;;;;;4992782;28;20019;-48
2023/01/17 05:45:11;;;;;;;66.70;36.13;;;7.90;1.00;;;;;;4993189;28;20081;-47
2023/01/17 05:47:37;;;;;;;59.27;35.60;;;8.00;1.00;;;;;;4994049;28;20041;-49
2023/01/17 05:50:03;;;;;;;69.67;41.33;;;8.00;1.00;;;;;;4993341;28;20049;-47
2023/01/17 05:52:28;;;;;;;64.43;39.47;;;8.00;1.00;;;;;;4993837;28;20026;-46
2023/01/17 05:54:54;;;;;;;59.97;36.40;;;8.10;1.00;;;;;;4993260;28;20038;-48
2023/01/17 05:57:19;;;;;;;61.63;34.67;;;8.00;1.00;;;;;;4993787;28;20220;-48
2023/01/17 05:59:51;;;;;;;57.60;35.10;;;8.00;1.00;;;;;;4993106;28;20027;-47
2023/01/17 06:02:16;;;;;;;54.57;33.50;;;8.10;1.00;;;;;;4992086;28;20142;-48
2023/01/17 06:04:42;;;;;;;63.47;35.70;;;7.90;1.00;;;;;;4993333;28;20137;-51
2023/01/17 06:07:07;;;;;;;63.13;35.87;;;7.90;1.00;;;;;;4992960;28;20033;-47
2023/01/17 06:09:33;;;;;;;57.50;33.67;;;7.80;1.00;;;;;;4989945;28;20026;-47
2023/01/17 06:11:59;;;;;;;54.17;33.40;;;8.00;1.00;;;;;;4989295;28;20052;-52
2023/01/17 06:14:24;;;;;;;62.23;33.57;;;8.00;1.00;;;;;;4993629;28;20046;-49
2023/01/17 06:16:50;;;;;;;56.87;33.97;;;7.90;1.00;;;;;;4993366;28;20498;-48
2023/01/17 06:19:15;;;;;;;49.53;30.57;;;7.90;1.00;;;;;;4993746;28;20033;-47
2023/01/17 06:21:41;;;;;;;49.83;30.93;;;8.00;1.00;;;;;;4993115;28;20030;-47
2023/01/17 06:24:07;;;;;;;47.00;31.17;;;7.90;1.00;;;;;;4993287;28;20118;-47
2023/01/17 06:26:33;;;;;;;44.50;30.37;;;7.90;1.00;;;;;;4993139;28;20019;-47
2023/01/17 06:29:00;;;;;;;53.23;30.63;;;7.90;1.00;;;;;;4993126;28;20364;-50
2023/01/17 06:31:25;;;;;;;48.47;30.00;;;7.90;1.00;;;;;;4992873;28;20025;-48
2023/01/17 06:33:51;;;;;;;47.87;30.03;;;8.00;1.00;;;;;;4993224;28;20042;-48
2023/01/17 06:36:16;;;;;;;47.40;31.60;;;7.90;1.00;;;;;;4992754;28;20391;-49
2023/01/17 06:38:42;;;;;;;52.70;32.17;;;8.00;1.00;;;;;;4993017;28;20034;-49
2023/01/17 06:41:08;;;;;;;46.33;30.53;;;8.00;1.00;;;;;;4992398;28;20046;-48
2023/01/17 06:43:34;;;;;;;57.07;32.93;;;8.00;1.00;;;;;;4993104;28;20057;-48
2023/01/17 06:46:00;;;;;;;61.23;35.60;;;7.90;1.00;;;;;;4992788;28;20114;-47
2023/01/17 06:48:26;;;;;;;56.97;33.43;;;8.00;1.00;;;;;;4993182;28;20033;-47
2023/01/17 06:50:51;;;;;;;61.57;35.30;;;8.00;1.00;;;;;;4992396;28;20402;-48
2023/01/17 06:53:17;;;;;;;52.87;33.70;;;8.00;1.00;;;;;;4993027;28;20049;-48
2023/01/17 06:55:43;;;;;;;61.17;36.00;;;8.10;1.00;;;;;;4991989;28;20412;-47
2023/01/17 06:58:09;;;;;;;64.37;37.03;;;8.10;1.00;;;;;;4992771;28;20114;-51
2023/01/17 07:00:34;;;;;;;69.10;38.57;;;8.00;1.00;;;;;;4991318;28;20461;-48
2023/01/17 07:03:00;;;;;;;71.03;39.70;;;8.00;1.00;;;;;;4992671;28;20173;-48
2023/01/17 07:05:27;;;;;;;70.13;38.37;;;8.10;1.00;;;;;;4992715;28;20105;-48
2023/01/17 07:07:53;;;;;;;71.60;39.97;;;8.10;1.00;;;;;;4992564;28;20026;-47
2023/01/17 07:10:20;;;;;;;65.00;37.83;;;8.10;1.00;;;;;;4992715;28;20038;-51
2023/01/17 07:12:46;;;;;;;74.23;40.47;;;8.20;1.00;;;;;;4992578;28;20033;-48
2023/01/17 07:15:11;;;;;;;75.67;40.17;;;8.20;1.00;;;;;;4990695;28;20427;-48
2023/01/17 07:17:38;;;;;;;70.13;39.20;;;8.20;1.00;;;;;;4992554;28;20101;-48
2023/01/17 07:20:04;;;;;;;71.67;38.77;;;8.30;1.00;;;;;;4992514;28;20368;-47
2023/01/17 07:22:29;;;;;;;68.10;39.07;;;8.20;1.00;;;;;;4992459;28;20110;-48
2023/01/17 07:24:57;;;;;;;67.33;38.40;;;8.20;1.00;;;;;;4991794;28;20446;-48
2023/01/17 07:27:29;;;;;;;70.10;38.73;;;8.00;1.00;;;;;;4992260;28;20049;-51
2023/01/17 07:29:55;;;;;;;70.40;37.87;;;8.20;1.00;;;;;;4991722;28;20417;-48
2023/01/17 07:32:20;;;;;;;64.20;37.10;;;8.20;1.00;;;;;;4992430;28;20038;-48
2023/01/17 07:34:46;;;;;;;72.20;39.87;;;8.30;1.00;;;;;;4991452;28;20461;-48
2023/01/17 07:37:12;;;;;;;75.53;41.17;;;8.30;1.00;;;;;;4992573;28;20014;-49
2023/01/17 07:39:37;;;;;;;71.90;40.63;;;8.30;1.00;;;;;;4992257;28;20038;-48
2023/01/17 07:42:03;;;;;;;71.83;39.50;;;8.40;1.00;;;;;;4991737;28;20035;-49
2023/01/17 07:44:28;;;;;;;70.07;39.27;;;8.30;1.00;;;;;;4992193;28;20483;-47
2023/01/17 07:46:54;;;;;;;63.40;37.87;;;8.30;1.00;;;;;;4990557;28;20104;-50
2023/01/17 07:49:20;;;;;;;62.47;35.47;;;8.10;1.00;;;;;;4983849;28;20031;-55
2023/01/17 07:51:46;;;;;;;60.70;35.73;;;8.10;1.00;;;;;;4981398;28;20055;-48
2023/01/17 07:54:13;;;;;;;60.73;34.87;;;8.10;1.00;;;;;;4989039;28;20030;-50
2023/01/17 07:56:38;;;;;;;62.20;34.97;;;8.10;1.00;;;;;;4980676;28;20027;-50
2023/01/17 07:59:05;;;;;;;58.77;35.77;;;8.30;1.00;;;;;;4977546;28;20042;-47
2023/01/17 08:01:30;;;;;;;59.97;34.03;;;8.40;1.00;;;;;;4972498;28;20480;-49
2023/01/17 08:03:56;;;;;;;57.07;34.50;;;8.40;1.00;;;;;;4972272;28;20031;-49
2023/01/17 08:06:24;;;;;;;56.33;33.30;;;8.40;1.00;;;;;;4972788;28;20073;-48
2023/01/17 08:08:51;;;;;;;55.53;33.80;;;8.40;1.00;;;;;;4976490;28;20030;-47
2023/01/17 08:11:17;;;;;;;58.23;34.27;;;8.30;1.00;;;;;;4976304;28;20503;-48
2023/01/17 08:13:43;;;;;;;57.10;33.50;;;8.20;1.00;;;;;;4975488;28;20074;-47
2023/01/17 08:16:10;;;;;;;56.50;33.37;;;8.30;1.00;;;;;;4975414;28;20106;-45
2023/01/17 08:18:36;;;;;;;59.33;35.77;;;8.40;1.00;;;;;;4976454;28;20121;-45
2023/01/17 08:21:02;;;;;;;57.30;32.70;;;8.20;1.00;;;;;;4975909;28;20030;-45
2023/01/17 08:23:30;;;;;;;55.83;32.50;;;8.20;1.00;;;;;;4959131;28;20027;-45
2023/01/17 08:26:00;;;;;;;56.20;33.53;;;8.30;1.00;;;;;;4975757;28;20027;-47
2023/01/17 08:28:25;;;;;;;59.67;34.40;;;8.30;1.00;;;;;;4965656;28;20023;-45
2023/01/17 08:30:51;;;;;;;61.23;34.30;;;8.20;1.00;;;;;;4975835;28;20392;-47
2023/01/17 08:33:16;;;;;;;55.97;32.13;;;8.40;1.00;;;;;;4958989;28;20102;-45
2023/01/17 08:35:54;;;;;;;59.13;32.50;;;8.40;1.00;;;;;;4975850;28;20031;-46
2023/01/17 08:38:22;;;;;;;55.40;34.13;;;8.40;1.00;;;;;;4976063;28;20034;-46
2023/01/17 08:40:49;;;;;;;55.40;32.27;;;8.40;1.00;;;;;;4976286;28;20025;-47
2023/01/17 08:43:15;;;;;;;54.43;31.90;;;8.40;1.00;;;;;;4957457;28;20027;-47
2023/01/17 08:45:45;;;;;;;48.57;31.03;;;8.40;1.00;;;;;;4958685;28;20093;-49
2023/01/17 08:48:11;;;;;;;49.37;30.13;;;8.40;1.00;;;;;;4975907;28;20018;-47
2023/01/17 08:50:40;;;;;;;51.20;32.07;;;8.30;1.00;;;;;;4975649;28;20054;-48
2023/01/17 08:53:06;;;;;;;52.23;32.80;;;8.40;1.00;;;;;;4975646;28;20035;-47
2023/01/17 08:55:36;;;;;;;52.53;32.07;;;8.40;1.00;;;;;;4957938;28;20030;-46
2023/01/17 08:58:02;;;;;;;53.47;34.50;;;8.40;1.00;;;;;;4971817;28;20182;-46
2023/01/17 09:00:28;;;;;;;56.47;33.80;;;8.40;1.00;;;;;;4974839;28;20042;-58
2023/01/17 09:02:54;;;;;;;56.27;35.50;;;8.50;1.00;;;;;;4975576;28;20033;-46
2023/01/17 09:05:20;;;;;;;59.93;36.53;;;8.40;1.00;;;;;;4975161;28;20027;-48
2023/01/17 09:07:45;;;;;;;61.93;36.87;;;8.40;1.00;;;;;;4975476;28;20030;-46
2023/01/17 09:10:11;;;;;;;64.27;37.10;;;8.50;1.00;;;;;;4975765;28;20031;-44
2023/01/17 09:12:39;;;;;;;61.10;34.67;;;8.20;1.00;;;;;;4956574;28;20035;-45
2023/01/17 09:15:05;;;;;;;60.57;35.27;;;8.10;1.00;;;;;;4975265;28;20050;-45
2023/01/17 09:17:30;;;;;;;60.50;37.40;;;8.20;1.00;;;;;;4975132;28;20039;-46
2023/01/17 09:19:58;;;;;;;61.77;35.13;;;8.20;1.00;;;;;;4975793;28;20038;-45
2023/01/17 09:22:26;;;;;;;61.97;36.90;;;8.20;1.00;;;;;;4974981;28;20019;-48
2023/01/17 09:24:52;;;;;;;66.60;38.77;;;8.20;1.00;;;;;;4975284;28;20118;-45
2023/01/17 09:27:19;;;;;;;62.57;38.57;;;8.20;1.00;;;;;;4974717;28;20028;-43
2023/01/17 09:29:45;;;;;;;60.80;35.73;;;8.30;1.00;;;;;;4975482;28;20118;-44
2023/01/17 09:32:11;;;;;;;60.50;36.10;;;8.30;1.00;;;;;;4974620;28;20114;-45
2023/01/17 09:34:36;;;;;;;60.97;35.27;;;8.40;1.00;;;;;;4975224;28;20038;-46
2023/01/17 09:37:02;;;;;;;58.93;36.10;;;8.30;1.00;;;;;;4974530;28;20595;-45
2023/01/17 09:39:27;;;;;;;83.67;46.13;;;8.30;1.00;;;;;;4975156;28;20089;-46
2023/01/17 09:42:16;;;;;;;55.33;33.17;;;8.10;1.00;;;;;;4974785;28;20030;-46
2023/01/17 09:44:51;;;;;;;59.00;33.23;;;8.20;1.00;;;;;;4974678;28;20099;-45
2023/01/17 09:47:39;;;;;;;56.03;33.60;;;8.10;1.00;;;;;;4973661;28;20031;-45
2023/01/17 09:50:34;;;;;;;42.47;24.90;;;8.00;1.00;;;;;;4976166;28;20089;-45
2023/01/17 09:53:11;;;;;;;45.55;29.58;;;7.80;1.00;;;;;;4985567;28;20030;-47
2023/01/17 09:55:54;;;;;;;49.87;29.20;;;7.90;1.00;;;;;;4986968;28;20460;-48
2023/01/17 09:58:38;;;;;;;38.23;23.73;;;8.10;1.00;;;;;;4986634;28;20038;-51
2023/01/17 10:01:41;;;;;;;41.70;25.53;;;8.10;1.00;;;;;;4993432;28;20034;-44
2023/01/17 10:04:44;;;;;;;38.23;23.00;;;8.20;1.00;;;;;;4993432;28;20037;-46
2023/01/17 10:07:18;;;;;;;36.13;22.00;;;7.70;5.10;;;;;;4993287;28;20503;-44
2023/01/17 10:09:56;;;;;;;33.53;20.55;;;7.60;6.30;;;;;;4993611;28;20454;-44
2023/01/17 10:12:27;;;;;;;32.43;19.50;;;7.60;7.20;;;;;;4981437;28;20113;-44
2023/01/17 10:15:01;;;;;;;30.77;20.77;;;7.70;7.40;;;;;;4993470;28;20085;-46
2023/01/17 10:17:39;;;;;;;35.17;22.63;;;7.80;7.80;;;;;;4993203;28;20097;-59
2023/01/17 10:20:32;;;;;;;34.97;22.47;;;7.60;8.10;;;;;;4993414;28;20023;-46
2023/01/17 10:23:24;;;;;;;33.43;20.50;;;7.80;8.10;;;;;;4984261;28;20066;-46
2023/01/17 10:26:23;;;;;;;27.00;18.23;;;7.70;11.30;;;;;;4988692;28;20113;-46
2023/01/17 10:28:51;;;;;;;31.67;21.23;;;7.70;15.30;;;;;;4981349;28;20125;-46
2023/01/17 10:31:25;;;;;;;28.10;18.70;;;7.80;15.70;;;;;;4993175;28;20022;-46
2023/01/17 10:33:56;;;;;;;29.57;18.03;;;7.30;15.70;;;;;;4992658;28;20125;-45
2023/01/17 10:36:38;;;;;;;27.93;17.87;;;7.30;21.90;;;;;;4992987;28;20033;-49
2023/01/17 10:39:20;;;;;;;28.90;19.30;;;7.50;18.40;;;;;;4993499;28;20026;-46
2023/01/17 10:41:54;;;;;;;23.07;14.53;;;7.20;15.00;;;;;;4993089;28;20139;-46
2023/01/17 10:44:46;;;;;;;21.20;13.35;;;7.40;12.30;;;;;;4983125;28;20049;-46
2023/01/17 10:47:23;;;;;;;21.03;13.40;;;7.50;12.50;;;;;;4990253;28;20027;-45
2023/01/17 10:49:53;;;;;;;26.30;16.50;;;7.60;9.50;;;;;;4981129;28;20100;-45
2023/01/17 10:52:47;;;;;;;25.73;15.53;;;7.60;3.40;;;;;;4993073;28;20030;-48
2023/01/17 10:55:25;;;;;;;25.83;16.37;;;7.40;2.30;;;;;;4989197;28;20073;-52
2023/01/17 10:57:52;;;;;;;27.23;17.17;;;7.40;97.30;;;;;;4992346;28;20065;-46
2023/01/17 11:00:33;;;;;;;27.73;16.43;;;7.30;99.90;;;;;;4993095;28;20388;-45
2023/01/17 11:02:59;;;;;;;26.60;16.07;;;7.30;99.90;;;;;;4991109;28;20503;-46
2023/01/17 11:05:27;;;;;;;26.73;15.83;;;7.20;99.90;;;;;;4988914;28;20496;-46
2023/01/17 11:07:58;;;;;;;29.60;17.90;;;7.30;99.90;;;;;;4974090;28;20089;-45
2023/01/17 11:10:52;;;;;;;26.43;16.40;;;7.40;99.90;;;;;;4992602;28;20027;-50
2023/01/17 11:13:37;;;;;;;29.43;16.53;;;7.20;99.90;;;;;;4974011;28;20046;-48
2023/01/17 11:16:16;;;;;;;27.20;17.10;;;7.00;99.90;;;;;;4992350;28;20031;-51
2023/01/17 11:18:42;;;;;;;21.97;15.10;;;6.80;99.90;;;;;;4992750;28;20042;-44
2023/01/17 11:21:23;;;;;;;25.13;14.47;;;6.60;99.90;;;;;;4974813;28;20033;-48
2023/01/17 11:23:53;;;;;;;25.57;15.30;;;6.70;99.90;;;;;;4992743;28;20101;-47
2023/01/17 11:26:29;;;;;;;26.67;15.40;;;6.90;99.90;;;;;;4974685;28;20385;-47
2023/01/17 11:29:13;;;;;;;25.43;15.40;;;7.00;99.90;;;;;;4992592;28;20038;-47
2023/01/17 11:31:38;;;;;;;21.93;13.57;;;7.10;99.90;;;;;;4992035;28;20037;-45
2023/01/17 11:34:15;;;;;;;21.57;14.20;;;6.90;99.90;;;;;;4991889;28;20042;-45
2023/01/17 11:36:41;;;;;;;21.07;13.20;;;7.00;99.90;;;;;;4992255;28;20484;-47
2023/01/17 11:39:26;;;;;;;20.70;12.50;;;7.50;99.90;;;;;;4975094;28;20040;-58
2023/01/17 11:41:52;;;;;;;;;;;7.30;99.90;;;;;;4993972;28;20399;-43
2023/01/17 11:44:30;;;;;;;17.13;10.80;;;6.80;99.90;;;;;;4996299;28;20024;-54
2023/01/17 11:47:13;;;;;;;19.47;10.47;;;7.10;99.90;;;;;;4978690;28;20023;-45
2023/01/17 11:49:41;;;;;;;18.20;11.97;;;6.90;99.90;;;;;;4983878;28;20046;-48
2023/01/17 11:52:17;;;;;;;13.30;9.83;;;7.20;99.90;;;;;;4976654;28;20029;-45
2023/01/17 11:54:46;;;;;;;18.67;12.23;;;7.60;99.90;;;;;;4983439;28;20065;-45
2023/01/17 11:57:33;;;;;;;19.87;11.67;;;7.40;99.90;;;;;;4995377;28;20097;-45
2023/01/17 12:00:07;;;;;;;14.47;9.53;;;7.60;99.90;;;;;;4995983;28;20033;-45
2023/01/17 12:02:54;;;;;;;19.25;11.73;;;7.70;99.90;;;;;;4995411;28;20391;-45
2023/01/17 12:05:47;;;;;;;13.03;9.23;;;7.80;99.90;;;;;;4995947;28;20034;-46
2023/01/17 12:08:50;;;;;;;12.30;8.63;;;7.60;99.90;;;;;;4995308;28;20138;-45
2023/01/17 12:13:59;;;;;;;12.23;8.63;;;7.30;99.90;;;;;;4974754;28;20030;-45
2023/01/17 12:14:57;;;;;;;11.63;7.70;;;7.50;99.90;;;;;;4986639;28;20076;-47
2023/01/17 12:17:59;;;;;;;11.80;8.10;;;7.30;99.90;;;;;;4955909;28;20113;-49
2023/01/17 12:20:58;;;;;;;15.43;9.67;;;7.30;99.90;;;;;;4985358;28;20042;-47
2023/01/17 12:23:45;;;;;;;13.77;9.70;;;7.40;99.90;;;;;;4993722;28;20034;-49
2023/01/17 12:26:55;;;;;;;16.13;10.77;;;7.60;99.90;;;;;;4994963;28;20553;-46
2023/01/17 12:29:45;;;;;;;13.03;8.77;;;7.30;99.90;;;;;;4995344;28;20476;-49
2023/01/17 12:32:37;;;;;;;13.10;8.13;;;6.90;99.90;;;;;;4992192;28;20038;-50
2023/01/17 12:35:08;;;;;;;9.63;6.67;;;6.50;99.90;;;;;;4991686;28;20093;-50
2023/01/17 12:37:43;;;;;;;11.17;6.13;;;7.00;99.90;;;;;;4994585;28;20113;-49
2023/01/17 12:40:16;;;;;;;7.10;5.17;;;7.10;99.90;;;;;;4977365;28;20502;-50
2023/01/17 12:42:56;;;;;;;8.03;5.93;;;7.20;99.90;;;;;;4992582;28;20033;-49
2023/01/17 12:45:22;;;;;;;8.20;6.43;;;7.20;99.90;;;;;;4977333;28;20113;-50
2023/01/17 12:47:56;;;;;;;6.30;5.60;;;7.30;99.90;;;;;;4995093;28;20129;-53
2023/01/17 12:50:46;;;;;;;7.03;5.40;;;7.10;99.90;;;;;;4993740;28;20080;-52
2023/01/17 12:53:47;;;;;;;7.87;5.97;;;7.10;99.90;;;;;;4994412;28;20145;-49
2023/01/17 12:56:35;;;;;;;6.83;5.83;;;7.30;99.90;;;;;;4904172;29;20092;-49
2023/01/17 12:59:34;;;;;;;6.90;5.97;;;7.40;99.90;;;;;;4988014;28;20050;-51
2023/01/17 13:02:09;;;;;;;6.37;5.07;;;7.20;99.90;;;;;;4995461;28;20027;-51
2023/01/17 13:04:52;;;;;;;6.90;5.00;;;7.50;99.90;;;;;;4993923;28;20038;-50
2023/01/17 13:08:13;;;;;;;7.83;5.60;;;7.50;99.90;;;;;;4989679;28;20035;-58
2023/01/17 13:11:05;;;;;;;8.70;6.40;;;7.30;99.90;;;;;;4977291;28;20592;-47
2023/01/17 13:13:31;;;;;;;6.90;6.00;;;7.20;99.90;;;;;;4994002;28;20031;-47
2023/01/17 13:16:06;;;;;;;7.33;5.57;;;7.30;99.90;;;;;;4988946;28;20023;-51
2023/01/17 13:18:34;;;;;;;;;;;7.20;99.90;;;;;;4994307;28;20415;-51
2023/01/17 13:21:04;;;;;;;7.87;6.00;;;7.30;99.90;;;;;;4976300;28;20360;-48
2023/01/17 13:23:39;;;;;;;7.70;6.03;;;7.40;99.90;;;;;;4994677;28;20027;-53
2023/01/17 13:26:29;;;;;;;13.90;6.95;;;7.30;99.90;;;;;;4994304;28;20110;-54
2023/01/17 13:29:28;;;;;;;11.10;7.03;;;7.40;99.90;;;;;;4994447;28;20469;-51
2023/01/17 13:35:42;;;;;;;7.77;5.70;;;7.10;99.90;;;;;;4980898;28;20182;-50
2023/01/17 13:38:38;;;;;;;7.53;5.77;;;7.30;99.90;;;;;;4994575;28;20050;-51
2023/01/17 13:41:30;;;;;;;7.90;6.30;;;7.30;99.90;;;;;;4994170;28;20037;-47
2023/01/17 13:47:26;;;;;;;11.37;7.27;;;7.20;99.90;;;;;;4993422;28;20125;-48
2023/01/17 13:49:55;;;;;;;9.37;6.53;;;7.30;99.90;;;;;;4989221;28;20412;-52
2023/01/17 13:52:22;;;;;;;9.30;6.50;;;7.40;99.90;;;;;;4992378;28;20075;-52
2023/01/17 13:54:52;;;;;;;10.20;7.07;;;7.20;99.90;;;;;;4992751;28;20395;-54
2023/01/17 13:57:28;;;;;;;7.60;6.27;;;7.40;99.90;;;;;;4993662;28;20030;-49
2023/01/17 13:59:58;;;;;;;10.13;6.83;;;7.30;99.90;;;;;;4975900;28;20126;-50
2023/01/17 14:02:37;;;;;;;9.40;5.97;;;7.30;99.90;;;;;;4991944;28;20026;-48
2023/01/17 14:05:14;;;;;;;10.20;6.70;;;7.30;99.90;;;;;;4992797;28;20022;-52
2023/01/17 14:07:46;;;;;;;8.77;7.17;;;7.00;99.90;;;;;;4975625;28;20051;-50
2023/01/17 14:10:27;;;;;;;9.10;6.67;;;7.10;99.90;;;;;;4986613;28;20042;-48
2023/01/17 14:12:53;;;;;;;11.93;7.63;;;7.20;99.90;;;;;;4981307;28;20026;-50
2023/01/17 14:15:27;;;;;;;9.03;6.53;;;7.20;99.90;;;;;;4993414;28;20041;-47
2023/01/17 14:18:03;;;;;;;8.53;6.77;;;7.20;99.90;;;;;;4993431;28;20062;-51
2023/01/17 14:20:37;;;;;;;11.13;6.97;;;7.00;99.90;;;;;;4989583;28;20022;-49
2023/01/17 14:23:25;;;;;;;7.25;5.63;;;7.10;99.90;;;;;;4968599;28;20027;-54
2023/01/17 14:25:51;;;;;;;9.77;7.00;;;7.20;99.90;;;;;;4989444;28;20388;-55
2023/01/17 14:28:30;;;;;;;9.07;6.83;;;7.00;99.90;;;;;;4988815;28;20406;-56
2023/01/17 14:30:58;;;;;;;8.23;6.30;;;6.90;99.90;;;;;;4992446;28;20141;-55
2023/01/17 14:33:36;;;;;;;7.40;5.87;;;7.20;99.90;;;;;;4990954;28;20050;-54
2023/01/17 14:36:20;;;;;;;10.70;7.77;;;7.10;99.90;;;;;;4964389;28;20050;-55
2023/01/17 14:38:46;;;;;;;9.80;7.28;;;7.20;99.90;;;;;;4992810;28;20017;-51
2023/01/17 14:41:40;;;;;;;10.33;6.40;;;7.10;99.90;;;;;;4992852;28;20019;-53
2023/01/17 14:44:06;;;;;;;6.37;5.10;;;7.10;99.90;;;;;;4971774;28;20030;-53
2023/01/17 14:46:33;;;;;;;8.47;6.33;;;7.00;99.90;;;;;;4993120;28;20026;-48